createdAt,value
2022-12-08T00:00:45.395Z,0
2022-12-08T00:01:51.924Z,0
2022-12-08T00:02:58.574Z,0
2022-12-08T00:04:05.076Z,0
2022-12-08T00:05:11.568Z,0
2022-12-08T00:06:18.087Z,0
2022-12-08T00:07:24.691Z,0
2022-12-08T00:08:31.219Z,0
2022-12-08T00:09:37.734Z,0
2022-12-08T00:10:44.263Z,0
2022-12-08T00:11:50.799Z,0
2022-12-08T00:12:57.371Z,0
2022-12-08T00:14:03.907Z,0
2022-12-08T00:15:10.520Z,0
2022-12-08T00:16:17.007Z,0
2022-12-08T00:17:23.609Z,0
2022-12-08T00:18:30.075Z,0
2022-12-08T00:19:36.738Z,0
2022-12-08T00:20:43.153Z,0
2022-12-08T00:21:49.685Z,0
2022-12-08T00:22:56.286Z,0
2022-12-08T00:24:02.807Z,0
2022-12-08T00:25:09.317Z,0
2022-12-08T00:26:16.183Z,0
2022-12-08T00:27:22.940Z,0
2022-12-08T00:28:29.680Z,0
2022-12-08T00:29:36.651Z,0
2022-12-08T00:30:43.243Z,0
2022-12-08T00:31:50.008Z,0
2022-12-08T00:32:56.801Z,0
2022-12-08T00:34:03.560Z,0
2022-12-08T00:35:10.344Z,0
2022-12-08T00:36:17.114Z,0
2022-12-08T00:37:23.989Z,0
2022-12-08T00:38:30.799Z,0
2022-12-08T00:39:37.597Z,0
2022-12-08T00:42:55.643Z,0
2022-12-08T00:44:30.399Z,0
2022-12-08T00:45:36.937Z,0
2022-12-08T00:46:43.473Z,0
2022-12-08T00:47:50.076Z,0
2022-12-08T00:48:56.554Z,0
2022-12-08T00:50:03.149Z,0
2022-12-08T00:51:09.688Z,0
2022-12-08T00:52:16.190Z,0
2022-12-08T00:53:22.743Z,0
2022-12-08T00:54:29.263Z,0
2022-12-08T00:55:35.844Z,0
2022-12-08T00:56:42.356Z,0
2022-12-08T00:57:48.976Z,0
2022-12-08T00:58:55.429Z,0
2022-12-08T01:00:02.030Z,0
2022-12-08T01:01:08.520Z,0
2022-12-08T01:02:15.071Z,0
2022-12-08T01:03:21.606Z,0
2022-12-08T01:04:28.125Z,0
2022-12-08T01:05:34.682Z,0
2022-12-08T01:06:41.244Z,0
2022-12-08T01:07:47.808Z,0
2022-12-08T01:08:54.421Z,0
2022-12-08T01:10:00.849Z,0
2022-12-08T01:11:07.392Z,0
2022-12-08T01:12:14.251Z,0
2022-12-08T01:13:21.017Z,0
2022-12-08T01:14:27.800Z,0
2022-12-08T01:15:34.523Z,0
2022-12-08T01:16:41.391Z,0
2022-12-08T01:17:48.084Z,0
2022-12-08T01:18:54.854Z,0
2022-12-08T01:20:01.684Z,0
2022-12-08T01:21:08.416Z,0
2022-12-08T01:22:15.195Z,0
2022-12-08T01:23:21.973Z,0
2022-12-08T01:24:28.756Z,0
2022-12-08T01:25:35.532Z,0
2022-12-08T01:26:42.817Z,0
2022-12-08T01:28:20.843Z,0
2022-12-08T01:29:27.455Z,0
2022-12-08T01:30:33.922Z,0
2022-12-08T01:31:40.638Z,0
2022-12-08T01:32:47.028Z,0
2022-12-08T01:33:53.544Z,0
2022-12-08T01:35:00.086Z,0
2022-12-08T01:36:06.640Z,0
2022-12-08T01:37:13.216Z,0
2022-12-08T01:38:19.728Z,0
2022-12-08T01:39:26.269Z,0
2022-12-08T01:40:32.835Z,0
2022-12-08T01:41:39.378Z,0
2022-12-08T01:42:45.896Z,0
2022-12-08T01:43:52.439Z,0
2022-12-08T01:44:58.992Z,0
2022-12-08T01:46:05.531Z,0
2022-12-08T01:47:12.081Z,0
2022-12-08T01:48:18.629Z,0
2022-12-08T01:49:25.198Z,0
2022-12-08T01:50:31.705Z,0
2022-12-08T01:51:38.253Z,0
2022-12-08T01:52:44.814Z,0
2022-12-08T01:53:51.448Z,0
2022-12-08T01:54:57.881Z,0
2022-12-08T01:56:04.659Z,0
2022-12-08T01:57:11.438Z,0
2022-12-08T01:58:18.234Z,0
2022-12-08T01:59:25.010Z,0
2022-12-08T02:00:31.790Z,0
2022-12-08T02:01:38.555Z,0
2022-12-08T02:02:45.331Z,0
2022-12-08T02:03:52.185Z,0
2022-12-08T02:04:58.911Z,0
2022-12-08T02:06:05.677Z,0
2022-12-08T02:07:12.486Z,0
2022-12-08T02:08:19.230Z,0
2022-12-08T02:09:25.999Z,0
2022-12-08T02:12:44.182Z,0
2022-12-08T02:14:18.970Z,0
2022-12-08T02:15:25.533Z,0
2022-12-08T02:16:32.125Z,0
2022-12-08T02:17:38.605Z,0
2022-12-08T02:18:45.111Z,0
2022-12-08T02:19:51.626Z,0
2022-12-08T02:20:58.340Z,0
2022-12-08T02:22:04.712Z,0
2022-12-08T02:23:11.262Z,0
2022-12-08T02:24:17.796Z,0
2022-12-08T02:25:24.331Z,0
2022-12-08T02:26:30.891Z,0
2022-12-08T02:27:37.421Z,0
2022-12-08T02:28:43.954Z,0
2022-12-08T02:29:50.500Z,0
2022-12-08T02:30:57.050Z,0
2022-12-08T02:32:03.680Z,0
2022-12-08T02:33:10.177Z,0
2022-12-08T02:34:16.775Z,0
2022-12-08T02:35:23.213Z,0
2022-12-08T02:36:29.799Z,0
2022-12-08T02:37:36.340Z,0
2022-12-08T02:38:42.857Z,0
2022-12-08T02:39:49.425Z,0
2022-12-08T02:40:55.927Z,0
2022-12-08T02:42:02.778Z,0
2022-12-08T02:43:09.535Z,0
2022-12-08T02:44:16.275Z,0
2022-12-08T02:45:23.032Z,0
2022-12-08T02:46:29.810Z,0
2022-12-08T02:47:36.612Z,0
2022-12-08T02:48:43.372Z,0
2022-12-08T02:49:50.137Z,0
2022-12-08T02:50:56.921Z,0
2022-12-08T02:52:03.696Z,0
2022-12-08T02:54:17.281Z,0
2022-12-08T02:55:24.037Z,0
2022-12-08T02:56:31.314Z,0
2022-12-08T02:58:09.402Z,0
2022-12-08T02:59:15.876Z,0
2022-12-08T03:00:22.417Z,0
2022-12-08T03:01:28.978Z,0
2022-12-08T03:02:35.501Z,0
2022-12-08T03:03:42.055Z,0
2022-12-08T03:04:48.602Z,0
2022-12-08T03:05:55.236Z,0
2022-12-08T03:07:01.678Z,0
2022-12-08T03:08:08.214Z,0
2022-12-08T03:09:14.829Z,0
2022-12-08T03:10:21.314Z,0
2022-12-08T03:11:27.838Z,0
2022-12-08T03:12:34.378Z,0
2022-12-08T03:13:40.948Z,0
2022-12-08T03:14:47.485Z,0
2022-12-08T03:15:53.998Z,0
2022-12-08T03:17:00.539Z,0
2022-12-08T03:18:07.086Z,0
2022-12-08T03:19:13.626Z,0
2022-12-08T03:20:20.176Z,0
2022-12-08T03:21:26.711Z,0
2022-12-08T03:22:33.251Z,0
2022-12-08T03:23:39.792Z,0
2022-12-08T03:24:46.354Z,0
2022-12-08T03:25:53.105Z,0
2022-12-08T03:26:59.898Z,0
2022-12-08T03:28:06.663Z,0
2022-12-08T03:29:13.455Z,0
2022-12-08T03:30:20.282Z,0
2022-12-08T03:31:27.125Z,0
2022-12-08T03:32:33.785Z,0
2022-12-08T03:33:40.563Z,0
2022-12-08T03:34:47.333Z,0
2022-12-08T03:35:54.151Z,0
2022-12-08T03:37:00.907Z,0
2022-12-08T03:38:07.668Z,0
2022-12-08T03:39:14.440Z,0
2022-12-08T03:42:32.644Z,0
2022-12-08T03:44:07.472Z,0
2022-12-08T03:45:13.936Z,0
2022-12-08T03:47:27.008Z,0
2022-12-08T03:48:33.556Z,0
2022-12-08T03:49:40.091Z,0
2022-12-08T03:50:46.629Z,0
2022-12-08T03:51:53.168Z,0
2022-12-08T03:52:59.790Z,0
2022-12-08T03:54:06.247Z,0
2022-12-08T03:55:12.787Z,0
2022-12-08T03:56:19.323Z,0
2022-12-08T03:57:25.921Z,0
2022-12-08T03:58:32.410Z,0
2022-12-08T03:59:39.020Z,0
2022-12-08T04:00:45.490Z,0
2022-12-08T04:01:52.025Z,0
2022-12-08T04:02:58.586Z,0
2022-12-08T04:04:05.137Z,0
2022-12-08T04:05:11.647Z,0
2022-12-08T04:06:18.244Z,0
2022-12-08T04:07:24.788Z,0
2022-12-08T04:08:31.268Z,0
2022-12-08T04:09:37.863Z,0
2022-12-08T04:10:44.353Z,0
2022-12-08T04:11:51.162Z,0
2022-12-08T04:12:57.928Z,0
2022-12-08T04:14:04.796Z,0
2022-12-08T04:15:11.524Z,0
2022-12-08T04:16:18.251Z,0
2022-12-08T04:17:25.047Z,0
2022-12-08T04:18:31.807Z,0
2022-12-08T04:19:38.593Z,0
2022-12-08T04:20:45.365Z,0
2022-12-08T04:21:52.147Z,0
2022-12-08T04:22:58.933Z,0
2022-12-08T04:24:05.697Z,0
2022-12-08T04:25:12.479Z,0
2022-12-08T04:26:19.773Z,0
2022-12-08T04:27:58.108Z,0
2022-12-08T04:29:04.826Z,0
2022-12-08T04:30:11.570Z,0
2022-12-08T04:31:18.356Z,0
2022-12-08T04:32:25.166Z,0
2022-12-08T04:33:32.010Z,0
2022-12-08T04:34:38.729Z,0
2022-12-08T04:35:45.468Z,0
2022-12-08T04:36:52.240Z,0
2022-12-08T04:37:59.073Z,0
2022-12-08T04:39:05.803Z,0
2022-12-08T04:40:12.587Z,0
2022-12-08T04:41:19.398Z,0
2022-12-08T04:42:26.128Z,0
2022-12-08T04:43:32.963Z,0
2022-12-08T04:44:39.686Z,0
2022-12-08T04:45:46.471Z,0
2022-12-08T04:46:53.321Z,0
2022-12-08T04:48:00.022Z,0
2022-12-08T04:49:06.844Z,0
2022-12-08T04:50:13.588Z,0
2022-12-08T04:51:20.360Z,0
2022-12-08T04:52:27.145Z,0
2022-12-08T04:53:33.920Z,0
2022-12-08T04:54:40.730Z,0
2022-12-08T04:56:52.932Z,0
2022-12-08T04:58:30.960Z,0
2022-12-08T04:59:37.485Z,0
2022-12-08T05:00:44.041Z,0
2022-12-08T05:01:50.578Z,0
2022-12-08T05:02:57.125Z,0
2022-12-08T05:04:03.655Z,0
2022-12-08T05:05:10.200Z,0
2022-12-08T05:06:16.735Z,0
2022-12-08T05:07:23.351Z,0
2022-12-08T05:08:29.832Z,0
2022-12-08T05:09:36.359Z,0
2022-12-08T05:10:42.897Z,0
2022-12-08T05:11:49.445Z,0
2022-12-08T05:12:56.003Z,0
2022-12-08T05:14:02.558Z,0
2022-12-08T05:15:09.062Z,0
2022-12-08T05:16:15.641Z,0
2022-12-08T05:17:22.185Z,0
2022-12-08T05:18:28.681Z,0
2022-12-08T05:19:35.231Z,0
2022-12-08T05:20:41.768Z,0
2022-12-08T05:21:48.310Z,0
2022-12-08T05:22:54.849Z,0
2022-12-08T05:24:01.403Z,0
2022-12-08T05:25:07.937Z,0
2022-12-08T05:26:14.733Z,0
2022-12-08T05:27:21.500Z,0
2022-12-08T05:28:28.285Z,0
2022-12-08T05:29:35.065Z,0
2022-12-08T05:30:41.841Z,0
2022-12-08T05:31:48.617Z,0
2022-12-08T05:32:55.417Z,0
2022-12-08T05:34:02.183Z,0
2022-12-08T05:35:08.966Z,0
2022-12-08T05:36:15.737Z,0
2022-12-08T05:37:22.537Z,0
2022-12-08T05:38:29.408Z,0
2022-12-08T05:39:36.239Z,0
2022-12-08T05:42:54.270Z,0
2022-12-08T05:45:39.306Z,0
2022-12-08T05:46:46.137Z,0
2022-12-08T05:47:52.868Z,0
2022-12-08T05:48:59.654Z,0
2022-12-08T05:50:06.431Z,0
2022-12-08T05:51:13.206Z,0
2022-12-08T05:52:19.986Z,0
2022-12-08T05:53:26.777Z,0
2022-12-08T05:54:33.598Z,0
2022-12-08T05:55:40.331Z,0
2022-12-08T05:56:47.183Z,0
2022-12-08T05:57:53.888Z,0
2022-12-08T05:59:00.666Z,0
2022-12-08T06:00:07.450Z,0
2022-12-08T06:01:14.231Z,0
2022-12-08T06:02:21.042Z,0
2022-12-08T06:03:27.837Z,0
2022-12-08T06:04:34.605Z,0
2022-12-08T06:05:41.365Z,0
2022-12-08T06:06:48.142Z,0
2022-12-08T06:07:54.910Z,0
2022-12-08T06:09:01.771Z,0
2022-12-08T06:10:08.484Z,0
2022-12-08T06:11:15.259Z,0
2022-12-08T06:12:48.591Z,0
2022-12-08T06:13:55.059Z,0
2022-12-08T06:15:01.786Z,0
2022-12-08T06:16:08.569Z,0
2022-12-08T06:17:15.349Z,0
2022-12-08T06:18:22.130Z,0
2022-12-08T06:19:29.026Z,0
2022-12-08T06:20:35.777Z,0
2022-12-08T06:21:42.472Z,0
2022-12-08T06:22:49.251Z,0
2022-12-08T06:23:56.097Z,0
2022-12-08T06:25:02.895Z,0
2022-12-08T06:26:09.642Z,0
2022-12-08T06:27:16.378Z,0
2022-12-08T06:28:23.156Z,0
2022-12-08T06:29:29.940Z,0
2022-12-08T06:30:36.725Z,0
2022-12-08T06:31:43.504Z,0
2022-12-08T06:32:50.304Z,0
2022-12-08T06:33:57.158Z,0
2022-12-08T06:35:03.856Z,0
2022-12-08T06:36:10.634Z,0
2022-12-08T06:37:17.411Z,0
2022-12-08T06:38:24.227Z,0
2022-12-08T06:39:31.046Z,0
2022-12-08T06:40:37.844Z,0
2022-12-08T06:42:50.104Z,0
2022-12-08T06:44:28.019Z,0
2022-12-08T06:45:34.576Z,0
2022-12-08T06:46:41.124Z,0
2022-12-08T06:47:47.702Z,0
2022-12-08T06:48:54.237Z,0
2022-12-08T06:50:00.742Z,0
2022-12-08T06:51:07.296Z,0
2022-12-08T06:52:13.838Z,0
2022-12-08T06:53:20.394Z,0
2022-12-08T06:54:27.010Z,0
2022-12-08T06:55:33.474Z,0
2022-12-08T06:56:40.014Z,0
2022-12-08T06:57:46.567Z,0
2022-12-08T06:58:53.111Z,0
2022-12-08T06:59:59.653Z,0
2022-12-08T07:01:06.443Z,0
2022-12-08T07:02:12.956Z,0
2022-12-08T07:03:19.371Z,0
2022-12-08T07:04:25.880Z,0
2022-12-08T07:05:32.423Z,0
2022-12-08T07:06:39.010Z,0
2022-12-08T07:07:45.469Z,0
2022-12-08T07:08:52.037Z,0
2022-12-08T07:09:58.552Z,0
2022-12-08T07:11:05.179Z,0
2022-12-08T07:12:11.857Z,0
2022-12-08T07:13:18.610Z,0
2022-12-08T07:14:25.407Z,0
2022-12-08T07:15:32.175Z,0
2022-12-08T07:16:39.014Z,5
2022-12-08T07:17:45.725Z,5
2022-12-08T07:18:52.548Z,5
2022-12-08T07:19:59.339Z,5
2022-12-08T07:21:05.957Z,5
2022-12-08T07:22:12.815Z,5
2022-12-08T07:23:19.506Z,5
2022-12-08T07:24:26.221Z,11
2022-12-08T07:25:32.998Z,11
2022-12-08T07:28:12.866Z,11
2022-12-08T07:29:51.682Z,11
2022-12-08T07:31:30.325Z,11
2022-12-08T07:33:09.117Z,16
2022-12-08T07:34:16.291Z,16
2022-12-08T07:35:23.528Z,22
2022-12-08T07:37:02.354Z,22
2022-12-08T07:38:41.001Z,22
2022-12-08T07:40:19.744Z,16
2022-12-08T07:41:58.407Z,16
2022-12-08T07:43:37.139Z,16
2022-12-08T07:45:15.854Z,22
2022-12-08T07:46:54.575Z,22
2022-12-08T07:50:44.322Z,22
2022-12-08T07:51:51.128Z,39
2022-12-08T07:52:57.892Z,39
2022-12-08T07:54:04.649Z,45
2022-12-08T07:55:11.394Z,50
2022-12-08T07:56:18.183Z,50
2022-12-08T07:57:24.993Z,50
2022-12-08T07:58:31.729Z,50
2022-12-08T07:59:38.462Z,56
2022-12-08T08:00:45.216Z,61
2022-12-08T08:01:51.976Z,61
2022-12-08T08:02:58.743Z,67
2022-12-08T08:04:05.706Z,67
2022-12-08T08:05:12.272Z,73
2022-12-08T08:06:19.023Z,78
2022-12-08T08:07:25.863Z,78
2022-12-08T08:08:32.596Z,78
2022-12-08T08:09:39.396Z,84
2022-12-08T08:10:46.213Z,78
2022-12-08T08:11:52.845Z,84
2022-12-08T08:12:59.659Z,84
2022-12-08T08:14:06.378Z,84
2022-12-08T08:15:13.174Z,78
2022-12-08T08:16:19.915Z,73
2022-12-08T08:17:26.755Z,73
2022-12-08T08:18:33.575Z,73
2022-12-08T08:20:45.804Z,73
2022-12-08T08:22:24.514Z,73
2022-12-08T08:23:37.483Z,90
2022-12-08T08:24:44.696Z,95
2022-12-08T08:26:23.436Z,101
2022-12-08T08:28:02.206Z,101
2022-12-08T08:29:40.797Z,112
2022-12-08T08:31:19.623Z,112
2022-12-08T08:32:58.324Z,106
2022-12-08T08:34:37.004Z,112
2022-12-08T08:36:15.623Z,112
2022-12-08T08:37:54.328Z,112
2022-12-08T08:39:33.205Z,118
2022-12-08T08:41:12.884Z,123
2022-12-08T08:44:30.450Z,129
2022-12-08T08:47:46.075Z,151
2022-12-08T08:48:52.439Z,157
2022-12-08T08:49:58.968Z,157
2022-12-08T08:51:05.337Z,157
2022-12-08T08:52:11.823Z,151
2022-12-08T08:53:18.286Z,151
2022-12-08T08:54:24.883Z,146
2022-12-08T08:55:31.364Z,135
2022-12-08T08:56:37.798Z,140
2022-12-08T08:57:44.292Z,135
2022-12-08T08:58:50.928Z,135
2022-12-08T08:59:57.365Z,129
2022-12-08T09:01:03.963Z,135
2022-12-08T09:02:10.383Z,146
2022-12-08T09:03:16.862Z,151
2022-12-08T09:04:23.379Z,157
2022-12-08T09:05:29.714Z,163
2022-12-08T09:06:36.287Z,174
2022-12-08T09:07:42.691Z,180
2022-12-08T09:08:49.243Z,180
2022-12-08T09:09:55.697Z,174
2022-12-08T09:11:02.179Z,168
2022-12-08T09:12:08.768Z,168
2022-12-08T09:13:15.141Z,168
2022-12-08T09:14:21.639Z,174
2022-12-08T09:15:28.373Z,180
2022-12-08T09:16:35.157Z,174
2022-12-08T09:17:41.861Z,174
2022-12-08T09:18:48.651Z,168
2022-12-08T09:19:55.345Z,163
2022-12-08T09:21:02.012Z,163
2022-12-08T09:22:08.756Z,163
2022-12-08T09:23:15.440Z,168
2022-12-08T09:24:22.268Z,174
2022-12-08T09:25:29.144Z,185
2022-12-08T09:26:35.770Z,196
2022-12-08T09:27:42.533Z,196
2022-12-08T09:28:49.262Z,208
2022-12-08T09:32:07.473Z,213
2022-12-08T09:33:42.978Z,236
2022-12-08T09:34:50.290Z,241
2022-12-08T09:36:28.893Z,247
2022-12-08T09:38:07.659Z,253
2022-12-08T09:39:46.404Z,258
2022-12-08T09:41:25.094Z,270
2022-12-08T09:43:03.786Z,281
2022-12-08T09:44:42.496Z,292
2022-12-08T09:46:21.126Z,298
2022-12-08T09:47:59.929Z,298
2022-12-08T09:49:38.531Z,292
2022-12-08T09:50:45.727Z,298
2022-12-08T09:53:46.523Z,303
2022-12-08T09:57:04.136Z,286
2022-12-08T10:00:19.676Z,292
2022-12-08T10:01:26.235Z,292
2022-12-08T10:02:32.731Z,275
2022-12-08T10:03:39.164Z,286
2022-12-08T10:04:45.682Z,286
2022-12-08T10:05:52.168Z,286
2022-12-08T10:06:58.681Z,275
2022-12-08T10:08:05.186Z,258
2022-12-08T10:09:11.709Z,247
2022-12-08T10:10:18.261Z,241
2022-12-08T10:11:24.732Z,219
2022-12-08T10:12:31.285Z,236
2022-12-08T10:13:37.865Z,270
2022-12-08T10:14:44.263Z,298
2022-12-08T10:15:50.728Z,298
2022-12-08T10:16:57.270Z,292
2022-12-08T10:18:03.852Z,298
2022-12-08T10:19:10.270Z,281
2022-12-08T10:20:16.787Z,303
2022-12-08T10:21:23.311Z,286
2022-12-08T10:22:29.699Z,281
2022-12-08T10:23:36.194Z,286
2022-12-08T10:24:42.665Z,286
2022-12-08T10:25:49.226Z,292
2022-12-08T10:26:55.622Z,270
2022-12-08T10:28:02.444Z,236
2022-12-08T10:29:09.134Z,219
2022-12-08T10:30:15.920Z,225
2022-12-08T10:31:22.615Z,247
2022-12-08T10:32:29.319Z,275
2022-12-08T10:33:36.033Z,286
2022-12-08T10:34:42.748Z,298
2022-12-08T10:35:49.519Z,303
2022-12-08T10:36:56.196Z,309
2022-12-08T10:38:02.943Z,298
2022-12-08T10:39:09.735Z,286
2022-12-08T10:40:16.384Z,303
2022-12-08T10:41:23.099Z,303
2022-12-08T10:44:41.282Z,315
2022-12-08T10:46:19.965Z,315
2022-12-08T10:47:27.143Z,292
2022-12-08T10:48:34.417Z,303
2022-12-08T10:50:13.031Z,292
2022-12-08T10:51:51.830Z,258
2022-12-08T10:53:30.461Z,247
2022-12-08T10:55:09.141Z,247
2022-12-08T10:56:47.848Z,230
2022-12-08T10:58:26.613Z,236
2022-12-08T11:00:05.268Z,247
2022-12-08T11:01:43.964Z,241
2022-12-08T11:03:22.663Z,270
2022-12-08T11:05:02.384Z,236
2022-12-08T11:08:18.342Z,241
2022-12-08T11:09:25.110Z,253
2022-12-08T11:10:31.729Z,247
2022-12-08T11:11:38.458Z,236
2022-12-08T11:12:45.218Z,241
2022-12-08T11:13:51.891Z,241
2022-12-08T11:14:58.600Z,241
2022-12-08T11:16:05.315Z,247
2022-12-08T11:17:12.066Z,258
2022-12-08T11:18:18.864Z,270
2022-12-08T11:19:25.543Z,264
2022-12-08T11:20:32.235Z,286
2022-12-08T11:21:39.039Z,303
2022-12-08T11:22:45.690Z,281
2022-12-08T11:23:52.383Z,253
2022-12-08T11:24:59.162Z,253
2022-12-08T11:26:05.871Z,253
2022-12-08T11:27:12.587Z,253
2022-12-08T11:28:19.301Z,264
2022-12-08T11:29:26.015Z,258
2022-12-08T11:30:32.730Z,258
2022-12-08T11:31:39.536Z,241
2022-12-08T11:32:46.167Z,258
2022-12-08T11:33:52.903Z,264
2022-12-08T11:34:59.605Z,264
2022-12-08T11:37:11.832Z,258
2022-12-08T11:38:19.011Z,236
2022-12-08T11:39:26.204Z,208
2022-12-08T11:41:04.926Z,219
2022-12-08T11:42:43.626Z,225
2022-12-08T11:44:22.409Z,236
2022-12-08T11:46:01.036Z,247
2022-12-08T11:47:39.745Z,247
2022-12-08T11:49:18.455Z,247
2022-12-08T11:50:57.162Z,264
2022-12-08T11:52:35.860Z,286
2022-12-08T11:54:14.641Z,292
2022-12-08T11:55:21.804Z,286
2022-12-08T11:58:22.556Z,292
2022-12-08T12:01:38.454Z,292
2022-12-08T12:02:45.189Z,281
2022-12-08T12:03:51.888Z,275
2022-12-08T12:04:58.732Z,275
2022-12-08T12:06:05.375Z,270
2022-12-08T12:07:12.218Z,275
2022-12-08T12:08:18.867Z,270
2022-12-08T12:09:25.602Z,270
2022-12-08T12:10:32.307Z,275
2022-12-08T12:11:39.006Z,275
2022-12-08T12:12:45.720Z,281
2022-12-08T12:13:52.440Z,286
2022-12-08T12:14:59.325Z,292
2022-12-08T12:16:06.019Z,298
2022-12-08T12:17:12.722Z,303
2022-12-08T12:18:19.422Z,303
2022-12-08T12:19:26.086Z,309
2022-12-08T12:20:32.850Z,320
2022-12-08T12:22:46.282Z,337
2022-12-08T12:23:53.004Z,348
2022-12-08T12:24:59.728Z,354
2022-12-08T12:26:06.482Z,365
2022-12-08T12:27:13.176Z,376
2022-12-08T12:28:19.928Z,382
2022-12-08T12:29:53.601Z,388
2022-12-08T12:31:00.835Z,388
2022-12-08T12:32:39.558Z,382
2022-12-08T12:34:18.295Z,382
2022-12-08T12:35:56.959Z,371
2022-12-08T12:37:35.674Z,360
2022-12-08T12:39:14.331Z,343
2022-12-08T12:40:53.112Z,337
2022-12-08T12:42:31.745Z,331
2022-12-08T12:44:10.456Z,320
2022-12-08T12:45:49.182Z,303
2022-12-08T12:46:56.492Z,286
2022-12-08T12:48:03.646Z,281
2022-12-08T12:52:11.605Z,270
2022-12-08T12:55:28.122Z,241
2022-12-08T12:57:14.934Z,219
2022-12-08T12:58:53.642Z,208
2022-12-08T13:00:32.386Z,202
2022-12-08T13:02:11.062Z,208
2022-12-08T13:03:23.448Z,219
2022-12-08T13:04:30.677Z,236
2022-12-08T13:06:09.393Z,247
2022-12-08T13:07:48.101Z,253
2022-12-08T13:09:26.811Z,258
2022-12-08T13:11:05.557Z,264
2022-12-08T13:12:44.252Z,258
2022-12-08T13:14:22.942Z,247
2022-12-08T13:16:01.670Z,247
2022-12-08T13:17:40.352Z,258
2022-12-08T13:19:19.128Z,258
2022-12-08T13:20:26.255Z,264
2022-12-08T13:21:33.460Z,270
2022-12-08T13:23:12.158Z,264
2022-12-08T13:24:50.913Z,258
2022-12-08T13:26:29.596Z,247
2022-12-08T13:28:08.284Z,230
2022-12-08T13:29:47.017Z,236
2022-12-08T13:31:25.694Z,230
2022-12-08T13:33:04.410Z,225
2022-12-08T13:36:54.280Z,236
2022-12-08T13:38:00.900Z,225
2022-12-08T13:39:07.583Z,219
2022-12-08T13:40:13.900Z,219
2022-12-08T13:41:20.432Z,219
2022-12-08T13:42:26.848Z,213
2022-12-08T13:43:33.313Z,213
2022-12-08T13:45:46.269Z,213
2022-12-08T13:46:52.860Z,213
2022-12-08T13:47:59.249Z,208
2022-12-08T13:49:05.716Z,208
2022-12-08T13:50:12.250Z,202
2022-12-08T13:51:18.804Z,196
2022-12-08T13:52:25.265Z,196
2022-12-08T13:53:31.755Z,196
2022-12-08T13:54:38.230Z,196
2022-12-08T13:55:44.758Z,196
2022-12-08T13:56:51.179Z,196
2022-12-08T13:57:57.675Z,191
2022-12-08T13:59:04.148Z,191
2022-12-08T14:00:10.658Z,191
2022-12-08T14:01:17.202Z,185
2022-12-08T14:02:23.673Z,180
2022-12-08T14:03:30.283Z,180
2022-12-08T14:04:36.690Z,174
2022-12-08T14:05:43.419Z,174
2022-12-08T14:06:50.211Z,180
2022-12-08T14:07:57.109Z,180
2022-12-08T14:09:03.738Z,180
2022-12-08T14:10:10.490Z,174
2022-12-08T14:11:17.213Z,174
2022-12-08T14:12:24.012Z,168
2022-12-08T14:13:30.655Z,163
2022-12-08T14:14:37.379Z,163
2022-12-08T14:15:44.091Z,163
2022-12-08T14:16:50.836Z,157
2022-12-08T14:17:57.717Z,157
2022-12-08T14:19:04.297Z,157
2022-12-08T14:21:44.768Z,151
2022-12-08T14:23:23.552Z,140
2022-12-08T14:25:02.163Z,135
2022-12-08T14:26:40.900Z,129
2022-12-08T14:27:48.183Z,123
2022-12-08T14:28:55.449Z,123
2022-12-08T14:30:34.013Z,118
2022-12-08T14:32:12.746Z,112
2022-12-08T14:33:51.470Z,106
2022-12-08T14:35:30.183Z,101
2022-12-08T14:37:08.903Z,101
2022-12-08T14:38:47.625Z,95
2022-12-08T14:40:26.334Z,95
2022-12-08T14:44:16.151Z,90
2022-12-08T14:45:22.788Z,78
2022-12-08T14:46:29.235Z,73
2022-12-08T14:47:35.750Z,73
2022-12-08T14:48:42.285Z,67
2022-12-08T14:49:48.816Z,61
2022-12-08T14:50:55.333Z,61
2022-12-08T14:52:01.845Z,56
2022-12-08T14:53:08.375Z,56
2022-12-08T14:54:14.937Z,50
2022-12-08T14:55:21.424Z,45
2022-12-08T14:56:28.028Z,39
2022-12-08T14:57:34.533Z,33
2022-12-08T14:58:41.062Z,33
2022-12-08T14:59:47.568Z,28
2022-12-08T15:00:54.151Z,28
2022-12-08T15:02:00.612Z,28
2022-12-08T15:03:07.132Z,22
2022-12-08T15:04:13.652Z,22
2022-12-08T15:05:20.169Z,22
2022-12-08T15:06:26.698Z,22
2022-12-08T15:07:33.210Z,22
2022-12-08T15:08:39.736Z,16
2022-12-08T15:09:46.324Z,16
2022-12-08T15:10:52.779Z,16
2022-12-08T15:11:59.310Z,16
2022-12-08T15:13:06.118Z,11
2022-12-08T15:14:12.887Z,11
2022-12-08T15:15:19.678Z,11
2022-12-08T15:16:26.370Z,11
2022-12-08T15:17:33.176Z,11
2022-12-08T15:18:40.016Z,11
2022-12-08T15:19:46.658Z,11
2022-12-08T15:20:53.447Z,11
2022-12-08T15:22:00.256Z,5
2022-12-08T15:23:06.989Z,5
2022-12-08T15:24:13.726Z,5
2022-12-08T15:25:20.480Z,5
2022-12-08T15:26:27.233Z,0
2022-12-08T15:29:05.853Z,0
2022-12-08T15:30:43.817Z,0
2022-12-08T15:31:50.351Z,0
2022-12-08T15:32:56.956Z,0
2022-12-08T15:34:03.496Z,0
2022-12-08T15:35:10.092Z,0
2022-12-08T15:36:16.625Z,0
2022-12-08T15:37:23.184Z,0
2022-12-08T15:38:29.701Z,0
2022-12-08T15:39:36.309Z,0
2022-12-08T15:40:42.739Z,0
2022-12-08T15:41:49.268Z,0
2022-12-08T15:42:55.946Z,0
2022-12-08T15:44:02.417Z,0
2022-12-08T15:45:08.957Z,0
2022-12-08T15:46:15.563Z,0
2022-12-08T15:47:21.985Z,0
2022-12-08T15:48:28.492Z,0
2022-12-08T15:49:35.086Z,0
2022-12-08T15:50:41.613Z,0
2022-12-08T15:51:48.110Z,0
2022-12-08T15:54:01.197Z,0
2022-12-08T15:55:07.737Z,0
2022-12-08T15:56:14.285Z,0
2022-12-08T15:57:20.861Z,0
2022-12-08T15:58:27.601Z,0
2022-12-08T15:59:34.472Z,0
2022-12-08T16:00:41.261Z,0
2022-12-08T16:01:48.005Z,0
2022-12-08T16:02:54.726Z,0
2022-12-08T16:04:01.499Z,0
2022-12-08T16:05:08.266Z,0
2022-12-08T16:06:15.065Z,0
2022-12-08T16:07:21.901Z,0
2022-12-08T16:08:28.610Z,0
2022-12-08T16:09:35.525Z,0
2022-12-08T16:10:42.172Z,0
2022-12-08T16:11:48.957Z,0
2022-12-08T16:12:56.233Z,0
2022-12-08T16:14:34.287Z,0
2022-12-08T16:15:40.800Z,0
2022-12-08T16:16:47.430Z,0
2022-12-08T16:17:53.881Z,0
2022-12-08T16:19:00.522Z,0
2022-12-08T16:20:06.954Z,0
2022-12-08T16:21:13.598Z,0
2022-12-08T16:22:20.114Z,0
2022-12-08T16:23:26.589Z,0
2022-12-08T16:24:33.155Z,0
2022-12-08T16:25:39.692Z,0
2022-12-08T16:26:46.238Z,0
2022-12-08T16:27:52.743Z,0
2022-12-08T16:28:59.323Z,0
2022-12-08T16:30:05.824Z,0
2022-12-08T16:31:12.382Z,0
2022-12-08T16:32:18.943Z,0
2022-12-08T16:33:25.503Z,0
2022-12-08T16:34:32.125Z,0
2022-12-08T16:35:38.626Z,0
2022-12-08T16:36:45.110Z,0
2022-12-08T16:37:51.630Z,0
2022-12-08T16:38:58.160Z,0
2022-12-08T16:41:11.264Z,0
2022-12-08T16:42:18.061Z,0
2022-12-08T16:43:24.878Z,0
2022-12-08T16:44:31.669Z,0
2022-12-08T16:45:38.356Z,0
2022-12-08T16:46:45.163Z,0
2022-12-08T16:47:51.977Z,0
2022-12-08T16:48:58.720Z,0
2022-12-08T16:50:05.482Z,0
2022-12-08T16:51:12.262Z,0
2022-12-08T16:52:19.093Z,0
2022-12-08T16:53:25.811Z,0
2022-12-08T16:54:32.586Z,0
2022-12-08T16:55:39.367Z,0
2022-12-08T16:58:57.602Z,0
2022-12-08T17:00:33.165Z,0
2022-12-08T17:01:39.169Z,0
2022-12-08T17:02:45.798Z,0
2022-12-08T17:03:52.246Z,0
2022-12-08T17:04:58.805Z,0
2022-12-08T17:06:05.331Z,0
2022-12-08T17:07:12.005Z,0
2022-12-08T17:08:18.423Z,0
2022-12-08T17:09:25.000Z,0
2022-12-08T17:10:31.541Z,0
2022-12-08T17:11:38.109Z,0
2022-12-08T17:12:44.600Z,0
2022-12-08T17:13:51.211Z,0
2022-12-08T17:14:57.706Z,0
2022-12-08T17:16:04.208Z,0
2022-12-08T17:17:10.747Z,0
2022-12-08T17:18:17.293Z,0
2022-12-08T17:19:23.847Z,0
2022-12-08T17:20:30.537Z,0
2022-12-08T17:21:36.981Z,0
2022-12-08T17:22:43.589Z,0
2022-12-08T17:23:50.071Z,0
2022-12-08T17:24:56.551Z,0
2022-12-08T17:26:03.100Z,0
2022-12-08T17:27:09.755Z,0
2022-12-08T17:28:16.205Z,0
2022-12-08T17:29:23.039Z,0
2022-12-08T17:30:29.735Z,0
2022-12-08T17:31:36.574Z,0
2022-12-08T17:32:43.299Z,0
2022-12-08T17:33:50.166Z,0
2022-12-08T17:34:56.876Z,0
2022-12-08T17:36:03.621Z,0
2022-12-08T17:37:10.410Z,0
2022-12-08T17:38:17.179Z,0
2022-12-08T17:39:24.063Z,0
2022-12-08T17:40:30.793Z,0
2022-12-08T17:41:37.686Z,0
2022-12-08T17:42:44.361Z,0
2022-12-08T17:43:51.625Z,0
2022-12-08T17:45:29.842Z,0
2022-12-08T17:46:36.661Z,0
2022-12-08T17:47:43.427Z,0
2022-12-08T17:48:50.180Z,0
2022-12-08T17:49:56.976Z,0
2022-12-08T17:51:03.747Z,0
2022-12-08T17:52:10.575Z,0
2022-12-08T17:53:17.306Z,0
2022-12-08T17:54:24.150Z,0
2022-12-08T17:55:30.864Z,0
2022-12-08T17:56:37.768Z,0
2022-12-08T17:57:44.414Z,0
2022-12-08T17:58:51.198Z,0